sensor_id;sensor_type;location;lat;lon;timestamp;pressure;altitude;pressure_sealevel;temperature;humidity
51287;BME280;37364;46.974;18.916;2023-06-19T00:01:58;154850.63;;;17.84;100.00
51287;BME280;37364;46.974;18.916;2023-06-19T00:04:28;154857.16;;;17.86;100.00
51287;BME280;37364;46.974;18.916;2023-06-19T00:07:01;154861.06;;;17.88;100.00
51287;BME280;37364;46.974;18.916;2023-06-19T00:09:31;154874.03;;;17.93;100.00
51287;BME280;37364;46.974;18.916;2023-06-19T00:12:01;154871.47;;;17.92;100.00
51287;BME280;37364;46.974;18.916;2023-06-19T00:14:31;154870.13;;;17.91;100.00
51287;BME280;37364;46.974;18.916;2023-06-19T00:17:02;154862.34;;;17.88;100.00
51287;BME280;37364;46.974;18.916;2023-06-19T00:19:33;154850.63;;;17.84;100.00
51287;BME280;37364;46.974;18.916;2023-06-19T00:22:06;154850.63;;;17.84;100.00
51287;BME280;37364;46.974;18.916;2023-06-19T00:24:36;154841.50;;;17.80;100.00
51287;BME280;37364;46.974;18.916;2023-06-19T00:27:06;154838.88;;;17.79;100.00
51287;BME280;37364;46.974;18.916;2023-06-19T00:29:36;154831.09;;;17.76;100.00
51287;BME280;37364;46.974;18.916;2023-06-19T00:32:06;154821.97;;;17.72;100.00
51287;BME280;37364;46.974;18.916;2023-06-19T00:34:36;154815.44;;;17.70;100.00
51287;BME280;37364;46.974;18.916;2023-06-19T00:37:11;154811.56;;;17.68;100.00
51287;BME280;37364;46.974;18.916;2023-06-19T00:39:42;154812.88;;;17.69;100.00
51287;BME280;37364;46.974;18.916;2023-06-19T00:42:12;154805.03;;;17.66;100.00
51287;BME280;37364;46.974;18.916;2023-06-19T00:44:42;154792.06;;;17.61;100.00
51287;BME280;37364;46.974;18.916;2023-06-19T00:47:11;154790.72;;;17.60;100.00
51287;BME280;37364;46.974;18.916;2023-06-19T00:49:42;154782.94;;;17.57;100.00
51287;BME280;37364;46.974;18.916;2023-06-19T00:52:14;154779.03;;;17.55;100.00
51287;BME280;37364;46.974;18.916;2023-06-19T00:54:44;154782.94;;;17.57;100.00
51287;BME280;37364;46.974;18.916;2023-06-19T00:57:14;154782.94;;;17.57;100.00
51287;BME280;37364;46.974;18.916;2023-06-19T00:59:46;154759.53;;;17.48;100.00
51287;BME280;37364;46.974;18.916;2023-06-19T01:02:16;154762.13;;;17.49;100.00
51287;BME280;37364;46.974;18.916;2023-06-19T01:04:47;154747.81;;;17.43;100.00
51287;BME280;37364;46.974;18.916;2023-06-19T01:07:22;154732.22;;;17.37;100.00
51287;BME280;37364;46.974;18.916;2023-06-19T01:09:56;154729.59;;;17.36;100.00
51287;BME280;37364;46.974;18.916;2023-06-19T01:12:28;154729.59;;;17.36;100.00
51287;BME280;37364;46.974;18.916;2023-06-19T01:15:00;154723.13;;;17.33;100.00
51287;BME280;37364;46.974;18.916;2023-06-19T01:17:32;154723.13;;;17.33;100.00
51287;BME280;37364;46.974;18.916;2023-06-19T01:20:03;154706.19;;;17.27;100.00
51287;BME280;37364;46.974;18.916;2023-06-19T01:22:40;154678.88;;;17.16;100.00
51287;BME280;37364;46.974;18.916;2023-06-19T01:25:11;154676.25;;;17.15;100.00
51287;BME280;37364;46.974;18.916;2023-06-19T01:27:42;154689.28;;;17.20;100.00
51287;BME280;37364;46.974;18.916;2023-06-19T01:30:14;154686.72;;;17.19;100.00
51287;BME280;37364;46.974;18.916;2023-06-19T01:32:45;154674.97;;;17.14;100.00
51287;BME280;37364;46.974;18.916;2023-06-19T01:35:19;154677.59;;;17.15;100.00
51287;BME280;37364;46.974;18.916;2023-06-19T01:37:52;154665.88;;;17.11;100.00
51287;BME280;37364;46.974;18.916;2023-06-19T01:40:24;154629.47;;;16.96;100.00
51287;BME280;37364;46.974;18.916;2023-06-19T01:42:58;154608.69;;;16.88;100.00
51287;BME280;37364;46.974;18.916;2023-06-19T01:45:29;154604.75;;;16.87;100.00
51287;BME280;37364;46.974;18.916;2023-06-19T01:47:59;154612.59;;;16.90;100.00
51287;BME280;37364;46.974;18.916;2023-06-19T01:50:29;154590.41;;;16.81;100.00
51287;BME280;37364;46.974;18.916;2023-06-19T01:53:02;154568.31;;;16.72;100.00
51287;BME280;37364;46.974;18.916;2023-06-19T01:55:32;154564.41;;;16.71;100.00
51287;BME280;37364;46.974;18.916;2023-06-19T01:58:02;154568.31;;;16.72;100.00
51287;BME280;37364;46.974;18.916;2023-06-19T02:00:32;154577.44;;;16.76;100.00
51287;BME280;37364;46.974;18.916;2023-06-19T02:03:04;154567.00;;;16.72;100.00
51287;BME280;37364;46.974;18.916;2023-06-19T02:05:34;154556.59;;;16.68;100.00
51287;BME280;37364;46.974;18.916;2023-06-19T02:08:09;154555.31;;;16.67;100.00
51287;BME280;37364;46.974;18.916;2023-06-19T02:10:39;154564.41;;;16.71;100.00
51287;BME280;37364;46.974;18.916;2023-06-19T02:13:09;154560.50;;;16.69;100.00
51287;BME280;37364;46.974;18.916;2023-06-19T02:15:38;154560.50;;;16.69;100.00
51287;BME280;37364;46.974;18.916;2023-06-19T02:18:09;154569.63;;;16.73;100.00
51287;BME280;37364;46.974;18.916;2023-06-19T02:20:39;154570.91;;;16.73;100.00
51287;BME280;37364;46.974;18.916;2023-06-19T02:23:11;154570.91;;;16.73;100.00
51287;BME280;37364;46.974;18.916;2023-06-19T02:25:41;154585.22;;;16.79;100.00
51287;BME280;37364;46.974;18.916;2023-06-19T02:28:11;154581.31;;;16.77;100.00
51287;BME280;37364;46.974;18.916;2023-06-19T02:30:41;154582.63;;;16.78;100.00
51287;BME280;37364;46.974;18.916;2023-06-19T02:33:11;154580.00;;;16.77;100.00
51287;BME280;37364;46.974;18.916;2023-06-19T02:35:41;154580.00;;;16.77;100.00
51287;BME280;37364;46.974;18.916;2023-06-19T02:38:13;154603.47;;;16.86;100.00
51287;BME280;37364;46.974;18.916;2023-06-19T02:40:48;154598.28;;;16.84;100.00
51287;BME280;37364;46.974;18.916;2023-06-19T02:43:18;154594.38;;;16.83;100.00
51287;BME280;37364;46.974;18.916;2023-06-19T02:45:48;154593.09;;;16.82;100.00
51287;BME280;37364;46.974;18.916;2023-06-19T02:48:18;154600.84;;;16.85;100.00
51287;BME280;37364;46.974;18.916;2023-06-19T02:50:50;154598.28;;;16.84;100.00
51287;BME280;37364;46.974;18.916;2023-06-19T02:53:22;154600.84;;;16.85;100.00
51287;BME280;37364;46.974;18.916;2023-06-19T02:55:52;154602.19;;;16.86;100.00
51287;BME280;37364;46.974;18.916;2023-06-19T02:58:22;154596.94;;;16.84;100.00
51287;BME280;37364;46.974;18.916;2023-06-19T03:00:55;154598.28;;;16.84;100.00
51287;BME280;37364;46.974;18.916;2023-06-19T03:03:25;154602.19;;;16.86;100.00
51287;BME280;37364;46.974;18.916;2023-06-19T03:05:55;154600.84;;;16.85;100.00
51287;BME280;37364;46.974;18.916;2023-06-19T03:08:29;154603.47;;;16.86;100.00
51287;BME280;37364;46.974;18.916;2023-06-19T03:10:59;154604.75;;;16.87;100.00
51287;BME280;37364;46.974;18.916;2023-06-19T03:13:33;154603.47;;;16.86;100.00
51287;BME280;37364;46.974;18.916;2023-06-19T03:16:03;154602.19;;;16.86;100.00
51287;BME280;37364;46.974;18.916;2023-06-19T03:18:33;154611.25;;;16.89;100.00
51287;BME280;37364;46.974;18.916;2023-06-19T03:21:03;154616.44;;;16.91;100.00
51287;BME280;37364;46.974;18.916;2023-06-19T03:23:37;154629.47;;;16.96;100.00
51287;BME280;37364;46.974;18.916;2023-06-19T03:26:08;154642.50;;;17.02;100.00
51287;BME280;37364;46.974;18.916;2023-06-19T03:28:39;154652.91;;;17.06;100.00
51287;BME280;37364;46.974;18.916;2023-06-19T03:31:10;154669.78;;;17.12;100.00
51287;BME280;37364;46.974;18.916;2023-06-19T03:33:39;154682.81;;;17.17;100.00
51287;BME280;37364;46.974;18.916;2023-06-19T03:36:10;154702.31;;;17.25;100.00
51287;BME280;37364;46.974;18.916;2023-06-19T03:38:50;154738.72;;;17.39;100.00
51287;BME280;37364;46.974;18.916;2023-06-19T03:41:23;154743.91;;;17.42;100.00
51287;BME280;37364;46.974;18.916;2023-06-19T03:43:54;154759.53;;;17.48;100.00
51287;BME280;37364;46.974;18.916;2023-06-19T03:46:24;154763.44;;;17.49;100.00
51287;BME280;37364;46.974;18.916;2023-06-19T03:48:54;154798.53;;;17.63;100.00
51287;BME280;37364;46.974;18.916;2023-06-19T03:51:27;154789.44;;;17.59;100.00
51287;BME280;37364;46.974;18.916;2023-06-19T03:54:00;154790.72;;;17.60;100.00
51287;BME280;37364;46.974;18.916;2023-06-19T03:56:30;154795.97;;;17.62;100.00
51287;BME280;37364;46.974;18.916;2023-06-19T03:59:00;154811.56;;;17.68;100.00
51287;BME280;37364;46.974;18.916;2023-06-19T04:01:30;154816.78;;;17.70;100.00
51287;BME280;37364;46.974;18.916;2023-06-19T04:04:00;154823.25;;;17.73;100.00
51287;BME280;37364;46.974;18.916;2023-06-19T04:06:30;154838.88;;;17.79;100.00
51287;BME280;37364;46.974;18.916;2023-06-19T04:09:03;154850.63;;;17.84;100.00
51287;BME280;37364;46.974;18.916;2023-06-19T04:11:33;154868.84;;;17.91;100.00
51287;BME280;37364;46.974;18.916;2023-06-19T04:14:03;154889.66;;;17.99;100.00
51287;BME280;37364;46.974;18.916;2023-06-19T04:16:32;154907.88;;;18.06;100.00
51287;BME280;37364;46.974;18.916;2023-06-19T04:19:02;154924.78;;;18.13;100.00
51287;BME280;37364;46.974;18.916;2023-06-19T04:21:32;154926.13;;;18.13;100.00
51287;BME280;37364;46.974;18.916;2023-06-19T04:24:07;154924.78;;;18.13;100.00
51287;BME280;37364;46.974;18.916;2023-06-19T04:26:37;154939.09;;;18.18;100.00
51287;BME280;37364;46.974;18.916;2023-06-19T04:29:09;154935.25;;;18.17;100.00
51287;BME280;37364;46.974;18.916;2023-06-19T04:31:43;154896.19;;;18.02;100.00
51287;BME280;37364;46.974;18.916;2023-06-19T04:34:15;154914.38;;;18.09;100.00
51287;BME280;37364;46.974;18.916;2023-06-19T04:36:47;154967.75;;;18.30;100.00
51287;BME280;37364;46.974;18.916;2023-06-19T04:39:20;154970.38;;;18.31;100.00
51287;BME280;37364;46.974;18.916;2023-06-19T04:41:50;154975.56;;;18.33;100.00
51287;BME280;37364;46.974;18.916;2023-06-19T04:44:20;155009.38;;;18.46;100.00
51287;BME280;37364;46.974;18.916;2023-06-19T04:46:49;155031.53;;;18.55;100.00
51287;BME280;37364;46.974;18.916;2023-06-19T04:49:28;155126.59;;;18.92;100.00
51287;BME280;37364;46.974;18.916;2023-06-19T04:51:59;155147.44;;;19.01;100.00
51287;BME280;37364;46.974;18.916;2023-06-19T04:54:32;155129.22;;;18.93;100.00
51287;BME280;37364;46.974;18.916;2023-06-19T04:57:02;155186.50;;;19.16;100.00
51287;BME280;37364;46.974;18.916;2023-06-19T04:59:33;155238.56;;;19.36;100.00
51287;BME280;37364;46.974;18.916;2023-06-19T05:02:03;155318.00;;;19.68;100.00
51287;BME280;37364;46.974;18.916;2023-06-19T05:04:34;155335.03;;;19.74;100.00
51287;BME280;37364;46.974;18.916;2023-06-19T05:07:04;155363.69;;;19.86;100.00
51287;BME280;37364;46.974;18.916;2023-06-19T05:09:37;155348.03;;;19.80;100.00
51287;BME280;37364;46.974;18.916;2023-06-19T05:12:07;155415.78;;;20.06;100.00
51287;BME280;37364;46.974;18.916;2023-06-19T05:14:37;155527.88;;;20.50;100.00
51287;BME280;37364;46.974;18.916;2023-06-19T05:17:07;155531.75;;;20.52;100.00
51287;BME280;37364;46.974;18.916;2023-06-19T05:19:37;155553.97;;;20.61;100.00
51287;BME280;37364;46.974;18.916;2023-06-19T05:22:07;155591.75;;;20.76;100.00
51287;BME280;37364;46.974;18.916;2023-06-19T05:24:39;155623.06;;;20.88;100.00
51287;BME280;37364;46.974;18.916;2023-06-19T05:27:09;155553.97;;;20.61;100.00
51287;BME280;37364;46.974;18.916;2023-06-19T05:29:39;155491.34;;;20.36;100.00
51287;BME280;37364;46.974;18.916;2023-06-19T05:32:09;155457.47;;;20.23;100.00
51287;BME280;37364;46.974;18.916;2023-06-19T05:34:39;155449.66;;;20.20;100.00
51287;BME280;37364;46.974;18.916;2023-06-19T05:37:09;155520.03;;;20.47;100.00
51287;BME280;37364;46.974;18.916;2023-06-19T05:39:41;155643.91;;;20.96;100.00
51287;BME280;37364;46.974;18.916;2023-06-19T05:42:11;155621.72;;;20.87;100.00
51287;BME280;37364;46.974;18.916;2023-06-19T05:44:41;155544.78;;;20.57;100.00
51287;BME280;37364;46.974;18.916;2023-06-19T05:47:11;155576.09;;;20.69;100.00
51287;BME280;37364;46.974;18.916;2023-06-19T05:49:43;155479.63;;;20.31;100.00
51287;BME280;37364;46.974;18.916;2023-06-19T05:52:13;155443.16;;;20.17;100.00
51287;BME280;37364;46.974;18.916;2023-06-19T05:54:46;155529.16;;;20.51;100.00
51287;BME280;37364;46.974;18.916;2023-06-19T05:57:16;155565.69;;;20.65;100.00
51287;BME280;37364;46.974;18.916;2023-06-19T05:59:47;155663.47;;;21.04;100.00
51287;BME280;37364;46.974;18.916;2023-06-19T06:02:17;155736.44;;;21.32;100.00
51287;BME280;37364;46.974;18.916;2023-06-19T06:04:48;155762.56;;;21.43;100.00
51287;BME280;37364;46.974;18.916;2023-06-19T06:07:18;155836.94;;;21.72;100.00
51287;BME280;37364;46.974;18.916;2023-06-19T06:09:50;155938.66;;;22.12;100.00
51287;BME280;37364;46.974;18.916;2023-06-19T06:12:20;155992.22;;;22.33;100.00
51287;BME280;37364;46.974;18.916;2023-06-19T06:14:50;155926.94;;;22.07;100.00
51287;BME280;37364;46.974;18.916;2023-06-19T06:17:20;156028.72;;;22.47;100.00
51287;BME280;37364;46.974;18.916;2023-06-19T06:19:50;156181.47;;;23.07;100.00
51287;BME280;37364;46.974;18.916;2023-06-19T06:22:20;156271.53;;;23.43;100.00
51287;BME280;37364;46.974;18.916;2023-06-19T06:24:52;156334.16;;;23.67;100.00
51287;BME280;37364;46.974;18.916;2023-06-19T06:27:22;156402.13;;;23.94;100.00
51287;BME280;37364;46.974;18.916;2023-06-19T06:29:53;156490.94;;;24.29;100.00
51287;BME280;37364;46.974;18.916;2023-06-19T06:32:23;156537.94;;;24.47;100.00
51287;BME280;37364;46.974;18.916;2023-06-19T06:34:53;156693.47;;;25.09;100.00
51287;BME280;37364;46.974;18.916;2023-06-19T06:37:22;156781.09;;;25.43;100.00
51287;BME280;37364;46.974;18.916;2023-06-19T06:39:55;156822.91;;;25.59;100.00
51287;BME280;37364;46.974;18.916;2023-06-19T06:42:25;156735.34;;;25.25;97.51
51287;BME280;37364;46.974;18.916;2023-06-19T06:44:55;156765.41;;;25.37;97.36
51287;BME280;37364;46.974;18.916;2023-06-19T06:47:25;156752.31;;;25.32;98.15
51287;BME280;37364;46.974;18.916;2023-06-19T06:49:55;156830.75;;;25.62;100.00
51287;BME280;37364;46.974;18.916;2023-06-19T06:52:24;156939.31;;;26.05;91.87
51287;BME280;37364;46.974;18.916;2023-06-19T06:54:57;157029.53;;;26.40;87.75
51287;BME280;37364;46.974;18.916;2023-06-19T06:57:27;156974.63;;;26.19;87.19
51287;BME280;37364;46.974;18.916;2023-06-19T06:59:57;156893.47;;;25.87;89.63
51287;BME280;37364;46.974;18.916;2023-06-19T07:02:27;156922.28;;;25.98;94.66
51287;BME280;37364;46.974;18.916;2023-06-19T07:04:57;156992.88;;;26.26;94.32
51287;BME280;37364;46.974;18.916;2023-06-19T07:07:27;157047.81;;;26.48;90.74
51287;BME280;37364;46.974;18.916;2023-06-19T07:09:59;157173.41;;;26.97;91.54
51287;BME280;37364;46.974;18.916;2023-06-19T07:12:29;157113.25;;;26.73;90.28
51287;BME280;37364;46.974;18.916;2023-06-19T07:14:59;157118.47;;;26.75;94.64
51287;BME280;37364;46.974;18.916;2023-06-19T07:17:32;157162.94;;;26.93;93.37
51287;BME280;37364;46.974;18.916;2023-06-19T07:20:04;157190.44;;;27.03;88.99
51287;BME280;37364;46.974;18.916;2023-06-19T07:22:34;157187.78;;;27.02;88.93
51287;BME280;37364;46.974;18.916;2023-06-19T07:25:07;157254.59;;;27.29;92.27
51287;BME280;37364;46.974;18.916;2023-06-19T07:27:37;157339.63;;;27.62;89.19
51287;BME280;37364;46.974;18.916;2023-06-19T07:30:08;157391.97;;;27.83;84.87
51287;BME280;37364;46.974;18.916;2023-06-19T07:32:43;157443.03;;;28.03;82.00
51287;BME280;37364;46.974;18.916;2023-06-19T07:35:21;157511.13;;;28.29;75.30
51287;BME280;37364;46.974;18.916;2023-06-19T07:37:56;157440.44;;;28.02;75.21
51287;BME280;37364;46.974;18.916;2023-06-19T07:40:46;157499.34;;;28.25;70.11
51287;BME280;37364;46.974;18.916;2023-06-19T07:43:17;157507.19;;;28.28;71.74
51287;BME280;37364;46.974;18.916;2023-06-19T07:45:49;157486.25;;;28.19;68.22
51287;BME280;37364;46.974;18.916;2023-06-19T07:48:19;157555.63;;;28.47;71.27
51287;BME280;37364;46.974;18.916;2023-06-19T07:50:54;157579.19;;;28.56;71.13
51287;BME280;37364;46.974;18.916;2023-06-19T07:53:29;157495.41;;;28.23;72.83
51287;BME280;37364;46.974;18.916;2023-06-19T07:56:17;157602.78;;;28.65;68.26
51287;BME280;37364;46.974;18.916;2023-06-19T07:58:47;157600.19;;;28.64;67.55
51287;BME280;37364;46.974;18.916;2023-06-19T08:01:16;157609.38;;;28.68;64.99
51287;BME280;37364;46.974;18.916;2023-06-19T08:03:46;157644.72;;;28.82;71.97
51287;BME280;37364;46.974;18.916;2023-06-19T08:06:16;157695.75;;;29.02;70.99
51287;BME280;37364;46.974;18.916;2023-06-19T08:08:47;157774.34;;;29.32;69.69
51287;BME280;37364;46.974;18.916;2023-06-19T08:11:24;157683.94;;;28.97;63.91
51287;BME280;37364;46.974;18.916;2023-06-19T08:13:57;157769.09;;;29.30;67.73
51287;BME280;37364;46.974;18.916;2023-06-19T08:16:35;157739.00;;;29.18;65.21
51287;BME280;37364;46.974;18.916;2023-06-19T08:19:07;157718.00;;;29.10;67.41
51287;BME280;37364;46.974;18.916;2023-06-19T08:21:37;157780.94;;;29.35;66.36
51287;BME280;37364;46.974;18.916;2023-06-19T08:24:07;157749.50;;;29.23;64.95
51287;BME280;37364;46.974;18.916;2023-06-19T08:26:39;157841.19;;;29.58;61.70
51287;BME280;37364;46.974;18.916;2023-06-19T08:29:09;157925.06;;;29.91;66.65
51287;BME280;37364;46.974;18.916;2023-06-19T08:31:39;157891.00;;;29.78;58.05
51287;BME280;37364;46.974;18.916;2023-06-19T08:34:09;157782.22;;;29.35;60.60
51287;BME280;37364;46.974;18.916;2023-06-19T08:36:39;157809.75;;;29.46;60.18
51287;BME280;37364;46.974;18.916;2023-06-19T08:39:09;157786.16;;;29.37;59.02
51287;BME280;37364;46.974;18.916;2023-06-19T08:41:41;157931.59;;;29.94;57.83
51287;BME280;37364;46.974;18.916;2023-06-19T08:44:11;158061.38;;;30.45;63.38
51287;BME280;37364;46.974;18.916;2023-06-19T08:46:43;158105.94;;;30.62;58.37
51287;BME280;37364;46.974;18.916;2023-06-19T08:49:20;158046.94;;;30.39;60.31
51287;BME280;37364;46.974;18.916;2023-06-19T08:51:53;158058.72;;;30.44;58.10
51287;BME280;37364;46.974;18.916;2023-06-19T08:54:23;158060.06;;;30.44;60.50
51287;BME280;37364;46.974;18.916;2023-06-19T08:56:59;158108.53;;;30.63;58.92
51287;BME280;37364;46.974;18.916;2023-06-19T08:59:32;158075.78;;;30.50;57.87
51287;BME280;37364;46.974;18.916;2023-06-19T09:02:09;158197.69;;;30.98;56.62
51287;BME280;37364;46.974;18.916;2023-06-19T09:04:43;158176.75;;;30.90;53.68
51287;BME280;37364;46.974;18.916;2023-06-19T09:07:15;158146.56;;;30.78;57.88
51287;BME280;37364;46.974;18.916;2023-06-19T09:09:49;158288.16;;;31.33;57.73
51287;BME280;37364;46.974;18.916;2023-06-19T09:12:31;158355.03;;;31.60;58.01
51287;BME280;37364;46.974;18.916;2023-06-19T09:15:10;158394.38;;;31.75;55.27
51287;BME280;37364;46.974;18.916;2023-06-19T09:17:45;158378.66;;;31.69;53.82
51287;BME280;37364;46.974;18.916;2023-06-19T09:20:25;158398.31;;;31.77;54.03
51287;BME280;37364;46.974;18.916;2023-06-19T09:22:58;158387.84;;;31.72;52.01
51287;BME280;37364;46.974;18.916;2023-06-19T09:25:42;158284.19;;;31.32;57.17
51287;BME280;37364;46.974;18.916;2023-06-19T09:28:26;158298.63;;;31.38;55.48
51287;BME280;37364;46.974;18.916;2023-06-19T09:31:08;158397.03;;;31.76;52.63
51287;BME280;37364;46.974;18.916;2023-06-19T09:33:43;158390.44;;;31.73;51.91
51287;BME280;37364;46.974;18.916;2023-06-19T09:36:13;158290.78;;;31.34;54.09
51287;BME280;37364;46.974;18.916;2023-06-19T09:38:43;158441.63;;;31.93;53.71
51287;BME280;37364;46.974;18.916;2023-06-19T09:41:15;158429.78;;;31.89;52.92
51287;BME280;37364;46.974;18.916;2023-06-19T09:43:49;158505.94;;;32.19;51.03
51287;BME280;37364;46.974;18.916;2023-06-19T09:46:19;158478.38;;;32.08;51.63
51287;BME280;37364;46.974;18.916;2023-06-19T09:48:49;158369.47;;;31.65;47.62
51287;BME280;37364;46.974;18.916;2023-06-19T09:51:27;158373.41;;;31.67;49.88
51287;BME280;37364;46.974;18.916;2023-06-19T09:53:59;158383.91;;;31.71;47.52
51287;BME280;37364;46.974;18.916;2023-06-19T09:56:31;158420.66;;;31.85;50.13
51287;BME280;37364;46.974;18.916;2023-06-19T09:59:04;158470.47;;;32.05;49.29
51287;BME280;37364;46.974;18.916;2023-06-19T10:01:36;158509.81;;;32.20;52.15
51287;BME280;37364;46.974;18.916;2023-06-19T10:04:07;158454.69;;;31.99;46.66
51287;BME280;37364;46.974;18.916;2023-06-19T10:06:44;158500.63;;;32.17;45.70
51287;BME280;37364;46.974;18.916;2023-06-19T10:09:15;158500.63;;;32.17;47.50
51287;BME280;37364;46.974;18.916;2023-06-19T10:11:49;158390.44;;;31.73;46.14
51287;BME280;37364;46.974;18.916;2023-06-19T10:14:24;158381.31;;;31.70;44.60
51287;BME280;37364;46.974;18.916;2023-06-19T10:16:54;158428.47;;;31.88;45.61
51287;BME280;37364;46.974;18.916;2023-06-19T10:19:24;158467.88;;;32.04;51.99
51287;BME280;37364;46.974;18.916;2023-06-19T10:21:54;158412.75;;;31.82;47.52
51287;BME280;37364;46.974;18.916;2023-06-19T10:24:26;158381.31;;;31.70;50.17
51287;BME280;37364;46.974;18.916;2023-06-19T10:26:57;158416.69;;;31.84;48.12
51287;BME280;37364;46.974;18.916;2023-06-19T10:29:40;158326.22;;;31.48;47.30
51287;BME280;37364;46.974;18.916;2023-06-19T10:32:30;158331.47;;;31.50;48.19
51287;BME280;37364;46.974;18.916;2023-06-19T10:35:00;158355.03;;;31.60;47.88
51287;BME280;37364;46.974;18.916;2023-06-19T10:37:34;158271.13;;;31.27;44.42
51287;BME280;37364;46.974;18.916;2023-06-19T10:40:04;158237.03;;;31.13;47.43
51287;BME280;37364;46.974;18.916;2023-06-19T10:42:37;158486.25;;;32.11;50.47
51287;BME280;37364;46.974;18.916;2023-06-19T10:45:10;158400.97;;;31.78;49.92
51287;BME280;37364;46.974;18.916;2023-06-19T10:47:43;158379.94;;;31.69;47.10
51287;BME280;37364;46.974;18.916;2023-06-19T10:50:13;158494.09;;;32.14;47.90
51287;BME280;37364;46.974;18.916;2023-06-19T10:52:44;158403.56;;;31.79;44.82
51287;BME280;37364;46.974;18.916;2023-06-19T10:55:15;158452.09;;;31.98;48.53
51287;BME280;37364;46.974;18.916;2023-06-19T10:57:45;158424.53;;;31.87;48.68
51287;BME280;37364;46.974;18.916;2023-06-19T11:00:24;158496.75;;;32.15;47.54
51287;BME280;37364;46.974;18.916;2023-06-19T11:02:56;158557.06;;;32.39;49.15
51287;BME280;37364;46.974;18.916;2023-06-19T11:05:26;158248.81;;;31.18;45.58
51287;BME280;37364;46.974;18.916;2023-06-19T11:07:57;158427.19;;;31.88;49.58
51287;BME280;37364;46.974;18.916;2023-06-19T11:10:28;158433.72;;;31.90;48.57
51287;BME280;37364;46.974;18.916;2023-06-19T11:12:58;158519.00;;;32.24;50.65
51287;BME280;37364;46.974;18.916;2023-06-19T11:15:31;158613.50;;;32.61;46.79
51287;BME280;37364;46.974;18.916;2023-06-19T11:18:02;158445.50;;;31.95;47.71
51287;BME280;37364;46.974;18.916;2023-06-19T11:20:42;158486.25;;;32.11;49.02
51287;BME280;37364;46.974;18.916;2023-06-19T11:23:12;158587.22;;;32.50;46.43
51287;BME280;37364;46.974;18.916;2023-06-19T11:25:42;158345.91;;;31.56;47.25
51287;BME280;37364;46.974;18.916;2023-06-19T11:28:12;158494.09;;;32.14;48.40
51287;BME280;37364;46.974;18.916;2023-06-19T11:30:47;158503.28;;;32.18;47.55
51287;BME280;37364;46.974;18.916;2023-06-19T11:33:19;158358.97;;;31.61;47.03
51287;BME280;37364;46.974;18.916;2023-06-19T11:35:53;158370.81;;;31.66;44.14
51287;BME280;37364;46.974;18.916;2023-06-19T11:38:25;158271.13;;;31.27;44.26
51287;BME280;37364;46.974;18.916;2023-06-19T11:40:55;158256.69;;;31.21;44.59
51287;BME280;37364;46.974;18.916;2023-06-19T11:43:26;158442.91;;;31.94;49.76
51287;BME280;37364;46.974;18.916;2023-06-19T11:46:02;158591.19;;;32.52;48.53
51287;BME280;37364;46.974;18.916;2023-06-19T11:48:32;158511.19;;;32.21;49.88
51287;BME280;37364;46.974;18.916;2023-06-19T11:51:02;158579.34;;;32.47;45.64
51287;BME280;37364;46.974;18.916;2023-06-19T11:53:34;158399.63;;;31.77;47.17
51287;BME280;37364;46.974;18.916;2023-06-19T11:56:04;158580.66;;;32.48;48.49
51287;BME280;37364;46.974;18.916;2023-06-19T11:58:34;158688.28;;;32.90;46.04
51287;BME280;37364;46.974;18.916;2023-06-19T12:01:06;158609.56;;;32.59;45.90
51287;BME280;37364;46.974;18.916;2023-06-19T12:03:36;158567.56;;;32.43;44.32
51287;BME280;37364;46.974;18.916;2023-06-19T12:06:07;158553.13;;;32.37;46.07
51287;BME280;37364;46.974;18.916;2023-06-19T12:08:37;158538.69;;;32.31;47.36
51287;BME280;37364;46.974;18.916;2023-06-19T12:11:07;158419.28;;;31.85;43.73
51287;BME280;37364;46.974;18.916;2023-06-19T12:13:37;158442.91;;;31.94;45.24
51287;BME280;37364;46.974;18.916;2023-06-19T12:16:09;158571.50;;;32.44;45.38
51287;BME280;37364;46.974;18.916;2023-06-19T12:18:39;158585.88;;;32.50;45.01
51287;BME280;37364;46.974;18.916;2023-06-19T12:21:09;158635.78;;;32.69;45.58
51287;BME280;37364;46.974;18.916;2023-06-19T12:23:59;158568.84;;;32.43;42.87
51287;BME280;37364;46.974;18.916;2023-06-19T12:26:29;158641.03;;;32.71;43.91
51287;BME280;37364;46.974;18.916;2023-06-19T12:29:04;158551.81;;;32.37;41.98
51287;BME280;37364;46.974;18.916;2023-06-19T12:31:37;158605.63;;;32.58;43.33
51287;BME280;37364;46.974;18.916;2023-06-19T12:34:07;158709.28;;;32.98;48.44
51287;BME280;37364;46.974;18.916;2023-06-19T12:36:55;158609.56;;;32.59;44.56
51287;BME280;37364;46.974;18.916;2023-06-19T12:39:26;158715.81;;;33.01;46.85
51287;BME280;37364;46.974;18.916;2023-06-19T12:41:56;158680.38;;;32.87;46.09
51287;BME280;37364;46.974;18.916;2023-06-19T12:44:26;158780.16;;;33.26;44.03
51287;BME280;37364;46.974;18.916;2023-06-19T12:46:59;158683.03;;;32.88;45.87
51287;BME280;37364;46.974;18.916;2023-06-19T12:49:31;158617.47;;;32.62;43.70
51287;BME280;37364;46.974;18.916;2023-06-19T12:52:01;158665.97;;;32.81;46.47
51287;BME280;37364;46.974;18.916;2023-06-19T12:54:31;158631.88;;;32.68;43.23
51287;BME280;37364;46.974;18.916;2023-06-19T12:57:01;158613.50;;;32.61;44.85
51287;BME280;37364;46.974;18.916;2023-06-19T12:59:31;158679.09;;;32.86;45.21